Time;durP1;ratioP1;P1;durP2;ratioP2;P2;SDS_P1;SDS_P2;PMS_P1;PMS_P2;Temp;Humidity;BMP_temperature;BMP_pressure;BME280_temperature;BME280_humidity;BME280_pressure;Samples;Min_cycle;Max_cycle;Signal;HPM_P1;HPM_P2
2022/01/29 00:01:15;;;;;;;4.90;4.45;;;;;;;2.79;58.72;94800.89;835055;71;32681;-83
2022/01/29 00:16:09;;;;;;;5.37;4.10;;;;;;;2.80;59.31;94808.19;827994;71;29822;-85
2022/01/29 00:31:13;;;;;;;5.20;4.67;;;;;;;2.81;59.76;94817.00;827952;71;32590;-82
2022/01/29 00:46:15;;;;;;;7.97;5.28;;;;;;;2.81;60.44;94809.73;827206;71;33451;-81
2022/01/29 01:01:09;;;;;;;7.33;5.58;;;;;;;2.80;61.37;94808.96;833824;71;30349;-82
2022/01/29 01:16:15;;;;;;;7.50;5.47;;;;;;;2.79;62.21;94804.78;828409;71;32668;-84
2022/01/29 01:31:15;;;;;;;7.25;5.33;;;;;;;2.76;62.58;94787.13;833948;71;32693;-83
2022/01/29 01:46:09;;;;;;;5.83;5.22;;;;;;;2.69;62.93;94790.34;829719;71;30722;-80
2022/01/29 02:01:16;;;;;;;5.92;5.10;;;;;;;2.64;63.56;94792.08;833917;71;32685;-80
2022/01/29 02:16:14;;;;;;;7.78;5.97;;;;;;;2.60;63.83;94794.33;829591;71;33065;-84
2022/01/29 02:31:08;;;;;;;5.80;5.30;;;;;;;2.61;64.06;94799.77;828157;71;29686;-84
2022/01/29 03:01:13;;;;;;;7.67;6.47;;;;;;;2.67;64.45;94809.22;830350;71;32546;-83
2022/01/29 03:16:09;;;;;;;8.30;5.90;;;;;;;2.63;64.10;94819.76;829232;71;29698;-83
2022/01/29 03:31:13;;;;;;;4.92;4.35;;;;;;;2.61;63.06;94807.55;827931;71;32059;-84
2022/01/29 03:46:09;;;;;;;6.15;4.75;;;;;;;2.54;62.24;94806.91;829933;70;29689;-84
2022/01/29 04:01:31;;;;;;;5.22;4.28;;;;;;;2.52;62.60;94808.94;828136;71;33427;-84
2022/01/29 04:16:17;;;;;;;6.95;5.50;;;;;;;2.49;63.10;94813.27;827232;71;33256;-84
2022/01/29 04:31:18;;;;;;;5.40;4.90;;;;;;;2.46;62.84;94808.04;830290;70;32627;-85
2022/01/29 04:46:09;;;;;;;8.45;5.75;;;;;;;2.44;62.54;94817.06;834303;71;30326;-84
2022/01/29 05:01:10;;;;;;;5.90;4.58;;;;;;;2.43;62.79;94807.70;829065;71;30269;-84
2022/01/29 05:16:34;;;;;;;5.83;5.33;;;;;;;2.42;63.36;94825.56;827405;71;33072;-84
2022/01/29 05:31:08;;;;;;;8.23;4.92;;;;;;;2.40;64.35;94821.90;833988;71;29649;-85
2022/01/29 05:46:08;;;;;;;6.08;5.53;;;;;;;2.34;64.79;94846.11;828187;71;29766;-85
2022/01/29 06:01:15;;;;;;;5.70;5.20;;;;;;;2.33;65.67;94875.11;833929;71;32824;-85
2022/01/29 06:16:15;;;;;;;7.25;6.20;;;;;;;2.40;65.77;94892.59;826882;71;32740;-86
2022/01/29 06:31:14;;;;;;;8.20;6.33;;;;;;;2.83;65.07;94891.14;826891;71;27811;-78
2022/01/29 06:46:08;;;;;;;7.40;6.33;;;;;;;3.58;63.05;94883.19;828027;71;30531;-78
2022/01/29 07:01:08;;;;;;;6.00;5.25;;;;;;;3.94;61.49;94912.33;826107;71;29711;-78
2022/01/29 07:16:08;;;;;;;7.78;6.33;;;;;;;4.19;60.98;94923.63;833563;71;29729;-76
2022/01/29 07:31:14;;;;;;;6.80;6.10;;;;;;;4.31;60.83;94930.03;826916;71;32689;-77
2022/01/29 07:46:09;;;;;;;7.10;6.20;;;;;;;4.50;60.38;94949.27;833968;71;30733;-78
2022/01/29 08:01:14;;;;;;;8.80;6.95;;;;;;;4.38;60.55;94952.76;824726;71;32739;-78
2022/01/29 08:16:23;;;;;;;10.00;7.17;;;;;;;4.32;60.85;94964.09;826860;71;33086;-79
2022/01/29 09:16:18;;;;;;;8.80;7.60;;;;;;;8.29;52.00;94990.02;827810;71;32963;-83
2022/01/29 09:31:15;;;;;;;7.67;6.65;;;;;;;7.47;52.60;94991.66;793479;74;31638;-84
2022/01/29 09:46:20;;;;;;;9.68;8.10;;;;;;;7.26;53.46;94982.94;822190;71;32899;-82
2022/01/29 10:01:10;;;;;;;7.30;6.70;;;;;;;6.71;53.51;94981.88;822680;71;30415;-75
2022/01/29 10:16:20;;;;;;;7.37;6.70;;;;;;;6.59;53.43;94987.27;828034;71;33095;-75
2022/01/29 10:31:14;;;;;;;9.40;6.28;;;;;;;6.07;55.11;94985.78;786996;74;32990;-76
2022/01/29 10:46:11;;;;;;;7.37;6.67;;;;;;;5.72;56.88;94988.28;823405;71;29845;-76
2022/01/29 11:01:19;;;;;;;8.25;7.37;;;;;;;5.66;57.85;94996.55;821698;71;32758;-78
2022/01/29 11:16:11;;;;;;;8.18;7.28;;;;;;;5.63;58.25;94979.57;829724;71;30423;-79
2022/01/29 11:31:18;;;;;;;11.10;8.50;;;;;;;5.59;58.84;94967.30;818559;71;30502;-78
2022/01/29 11:46:32;;;;;;;10.38;8.13;;;;;;;5.73;58.62;94970.31;821173;71;32209;-77
2022/01/29 12:01:12;;;;;;;13.20;8.38;;;;;;;5.72;57.94;94967.45;823918;70;29692;-78
2022/01/29 12:16:54;;;;;;;9.78;7.80;;;;;;;5.66;57.85;94961.89;827053;71;32714;-76
2022/01/29 12:31:10;;;;;;;12.93;8.65;;;;;;;5.47;57.69;94954.94;828093;71;30318;-77
2022/01/29 12:46:14;;;;;;;9.83;7.30;;;;;;;5.34;57.66;94949.07;829528;71;29739;-81
2022/01/29 13:01:26;;;;;;;12.30;8.93;;;;;;;5.24;58.33;94944.27;827134;71;32824;-77
2022/01/29 13:16:15;;;;;;;12.80;8.60;;;;;;;5.56;57.22;94948.28;819063;71;33379;-78
2022/01/29 13:31:08;;;;;;;11.18;8.70;;;;;;;5.40;57.48;94944.20;827631;71;29697;-77
2022/01/29 13:46:18;;;;;;;9.35;7.28;;;;;;;5.12;57.71;94945.69;833498;71;32880;-77
2022/01/29 14:01:15;;;;;;;10.32;8.30;;;;;;;4.97;58.22;94971.78;826909;71;32859;-77
2022/01/29 14:16:08;;;;;;;12.80;8.75;;;;;;;4.69;59.15;94979.19;833233;71;29775;-75
2022/01/29 14:31:08;;;;;;;9.65;7.90;;;;;;;4.38;59.96;94975.36;820409;71;29800;-78
2022/01/29 14:46:08;;;;;;;11.43;8.60;;;;;;;4.18;60.71;94977.89;827489;71;28601;-78
2022/01/29 15:01:09;;;;;;;11.05;8.35;;;;;;;3.98;61.31;94975.74;834378;71;29973;-77
2022/01/29 16:01:39;;;;;;;13.55;9.70;;;;;;;3.30;64.32;95005.87;833520;71;32798;-81
2022/01/29 16:16:29;;;;;;;;;;;;;;;;;;;;;
2022/01/29 17:01:43;;;;;;;12.10;8.38;;;;;;;2.63;64.47;95025.69;821871;71;33242;-78
2022/01/29 18:46:24;;;;;;;11.88;8.53;;;;;;;1.49;65.20;95034.23;821815;71;30369;-83
2022/01/29 20:01:18;;;;;;;10.30;8.10;;;;;;;1.15;65.24;95017.52;821776;71;32882;-79
2022/01/29 20:02:22;;;;;;;12.37;8.93;;;;;;;1.12;65.43;95016.67;775574;75;26266;-80
2022/01/29 20:03:26;;;;;;;12.53;8.90;;;;;;;1.16;65.61;95017.30;799670;73;26833;-78
2022/01/29 20:04:31;;;;;;;11.03;8.30;;;;;;;1.24;65.73;95012.36;796473;72;26340;-81
2022/01/29 20:05:37;;;;;;;10.98;7.87;;;;;;;1.34;65.61;95019.61;802488;73;26372;-80
2022/01/29 20:06:43;;;;;;;10.10;7.60;;;;;;;1.45;65.46;95024.55;803413;73;26241;-81
2022/01/29 20:07:47;;;;;;;9.05;7.95;;;;;;;1.55;65.25;95019.14;800467;73;26290;-81
2022/01/29 20:08:51;;;;;;;8.58;7.58;;;;;;;1.64;64.99;95018.84;800360;73;26389;-81
2022/01/29 20:09:55;;;;;;;11.10;7.87;;;;;;;1.74;64.76;95020.41;802777;73;26293;-80
2022/01/29 20:10:59;;;;;;;9.98;8.18;;;;;;;1.83;64.52;95019.10;798938;73;26931;-80
2022/01/29 20:12:03;;;;;;;9.95;7.35;;;;;;;1.88;64.30;95020.52;801893;73;26730;-79
2022/01/29 20:13:08;;;;;;;9.73;7.50;;;;;;;1.95;64.12;95017.86;801058;73;26721;-79
2022/01/29 20:14:12;;;;;;;9.23;8.28;;;;;;;2.03;63.84;95016.73;804639;72;26290;-81
2022/01/29 20:15:17;;;;;;;9.95;7.17;;;;;;;2.07;63.59;95017.39;798906;73;26310;-82
2022/01/29 20:16:25;;;;;;;9.20;7.83;;;;;;;2.11;63.44;95015.13;801335;72;26260;-82
2022/01/29 20:31:48;;;;;;;8.65;7.20;;;;;;;1.37;63.85;94985.05;806013;72;31391;-80
2022/01/29 21:16:59;;;;;;;;;;;;;;;;;;;;;
2022/01/29 21:31:26;;;;;;;7.70;6.03;;;;;;;0.11;65.33;94862.45;822329;71;29936;-79
2022/01/29 22:01:15;;;;;;;10.50;6.50;;;;;;;0.29;64.66;94915.88;792571;74;32155;-78
2022/01/29 22:16:50;;;;;;;8.23;6.83;;;;;;;0.18;64.22;94900.09;833287;71;31871;-80
2022/01/29 22:46:39;;;;;;;9.75;7.08;;;;;;;0.00;63.51;94858.78;833243;71;32816;-78
2022/01/29 23:01:25;;;;;;;10.30;6.78;;;;;;;-0.26;63.13;94837.37;833279;71;31848;-78
